Terminal Aerodrome Forecast
Issued by NWS

Home | Current Version | Previous Version | Text Only | Print | Product List | Glossary On
Versions: 1 2 3 4 5 6 7 8 9 10 11 12 13 14 15 16 17 18 19
000
FTUS46 KSEW 310001 AAA
TAFHQM
TAF AMD
KHQM 310001Z 3100/3124 25012KT P6SM SKC
     FM310100 27008KT P6SM SKC
     FM310400 VRB03KT P6SM SKC
     FM310900 VRB03KT 5SM BR SKC
     FM311600 VRB03KT P6SM SKC=

USA.gov is the U.S. government's official web portal to all federal, state and local government web resources and services.